METAR Data

Data at: 0403 UTC 20 Oct 2018

METAR for:KEWR (Newark Intl, NJ, US)
Text:KEWR 200351Z 20011G17KT 10SM SCT150 BKN180 OVC250 13/07 A2992 RMK AO2 SLP130 T01330067 $
Temperature: 13.3°C ( 56°F)
Dewpoint: 6.7°C ( 44°F) [RH = 64%]
Pressure (altimeter):29.92 inches Hg (1013.3 mb) [Sea level pressure: 1013.0 mb]
Winds:from the SSW (200 degrees) at 13 MPH (11 knots; 5.7 m/s) gusting to 20 MPH (17 knots; 8.7 m/s)
Visibility:10 or more sm (16+ km)
Ceiling:18000 feet AGL
Clouds: scattered clouds at 15000 feet AGL, broken clouds at 18000 feet AGL, overcast cloud deck at 25000 feet AGL
QC Flag:SOME DATA ABOVE MAY BE INACCURATE!!!"$" is an indication the sensor requires maintenance.